Newburgh, Canada
Current Conditions -  °F | °C
As of 11:00 PM on Sunday 19 Oct 2014 (Local Time) from CYGK Reporting Station
Broken Clouds Broken Clouds  
Wind Chill: 39°   Ceiling: 22000
Heat Index: 39°   Visibility: 15mi
Dew Point: 30°   Wind: 3mph
Humidity: 70%   Direction: 320°NW
Pressure: 30.02"   Gusts: NA
Location:  44.33°N, 76.87°W
Report Text: CYGK 200300Z 32003KT 15SM FEW030 SCT180 BKN220 04/M01 A3002 RMK SC1AC3CI3 LAST OBS/NEXT 201000 UTC SLP169
Loading
Personal Weather Stations






























Interactive Weather Map
Tropical Storm Tracking
New forecast layout! Learn more

10-Day Weather Forecast

Advertisements
Track Severe Weather on mobile